createdAt,value
2018-12-24T00:01:27.301Z,9.67
2018-12-24T00:06:28.708Z,1.40
2018-12-24T00:11:29.384Z,1.70
2018-12-24T00:16:30.182Z,0.90
2018-12-24T00:21:31.058Z,0.90
2018-12-24T00:26:32.230Z,0.80
2018-12-24T00:31:32.926Z,0.50
2018-12-24T00:36:33.822Z,0.60
2018-12-24T00:41:34.652Z,0.80
2018-12-24T00:46:35.428Z,0.70
2018-12-24T00:51:36.282Z,0.43
2018-12-24T00:56:37.092Z,0.50
2018-12-24T01:02:10.768Z,0.60
2018-12-24T01:07:25.967Z,0.40
2018-12-24T01:12:40.821Z,0.57
2018-12-24T01:17:56.639Z,1.17
2018-12-24T01:23:11.125Z,0.60
2018-12-24T01:28:25.709Z,0.63
2018-12-24T01:33:40.060Z,0.63
2018-12-24T01:38:54.121Z,0.50
2018-12-24T01:44:08.798Z,0.70
2018-12-24T01:49:23.405Z,0.70
2018-12-24T01:54:38.366Z,0.50
2018-12-24T02:00:04.270Z,0.50
2018-12-24T02:05:25.209Z,1.73
2018-12-24T02:10:39.536Z,3.20
2018-12-24T02:15:54.474Z,0.60
2018-12-24T02:21:09.020Z,0.60
2018-12-24T02:26:23.289Z,0.60
2018-12-24T02:31:37.741Z,0.70
2018-12-24T02:36:52.330Z,0.60
2018-12-24T02:42:06.516Z,1.03
2018-12-24T02:47:20.972Z,0.80
2018-12-24T02:52:35.408Z,0.70
2018-12-24T02:57:49.962Z,0.63
2018-12-24T03:03:04.762Z,0.70
2018-12-24T03:08:19.172Z,0.70
2018-12-24T03:13:33.380Z,1.10
2018-12-24T03:18:47.854Z,3.50
2018-12-24T03:24:02.312Z,1.60
2018-12-24T03:29:16.420Z,0.70
2018-12-24T03:34:31.008Z,0.90
2018-12-24T03:39:45.431Z,0.73
2018-12-24T03:44:59.664Z,0.80
2018-12-24T03:50:14.750Z,1.70
2018-12-24T03:55:29.362Z,0.80
2018-12-24T04:00:43.694Z,0.70
2018-12-24T04:05:58.219Z,0.63
2018-12-24T04:11:12.717Z,0.90
2018-12-24T04:16:27.290Z,0.70
2018-12-24T04:21:41.993Z,0.70
2018-12-24T04:26:56.494Z,0.90
2018-12-24T04:32:10.733Z,0.70
2018-12-24T04:37:25.205Z,0.80
2018-12-24T04:42:39.360Z,0.80
2018-12-24T04:47:53.730Z,0.70
2018-12-24T04:53:08.182Z,0.83
2018-12-24T04:58:22.361Z,0.70
2018-12-24T05:03:36.519Z,0.90
2018-12-24T05:08:50.635Z,0.80
2018-12-24T05:14:04.930Z,0.70
2018-12-24T05:19:19.533Z,1.30
2018-12-24T05:24:34.009Z,0.80
2018-12-24T05:29:48.377Z,0.83
2018-12-24T05:35:02.623Z,1.00
2018-12-24T05:40:16.831Z,1.10
2018-12-24T05:45:31.242Z,0.70
2018-12-24T05:50:45.509Z,1.63
2018-12-24T05:56:00.193Z,2.80
2018-12-24T06:01:14.793Z,0.80
2018-12-24T06:06:29.104Z,0.90
2018-12-24T06:11:43.408Z,0.90
2018-12-24T06:16:57.820Z,0.90
2018-12-24T06:22:12.567Z,0.90
2018-12-24T06:27:26.783Z,0.90
2018-12-24T06:32:41.480Z,0.73
2018-12-24T06:37:56.019Z,1.80
2018-12-24T06:43:10.501Z,1.07
2018-12-24T06:48:25.347Z,0.93
2018-12-24T06:53:39.712Z,0.90
2018-12-24T06:58:55.521Z,1.00
2018-12-24T07:04:10.288Z,0.90
2018-12-24T07:09:26.358Z,0.90
2018-12-24T07:14:55.290Z,0.93
2018-12-24T07:30:57.051Z,1.20
2018-12-24T07:36:11.467Z,1.20
2018-12-24T07:41:25.908Z,1.30
2018-12-24T07:46:40.966Z,0.80
2018-12-24T07:57:10.151Z,1.20
2018-12-24T08:02:26.098Z,1.00
2018-12-24T08:07:40.889Z,1.10
2018-12-24T08:12:55.840Z,0.90
2018-12-24T08:18:10.751Z,1.10
2018-12-24T08:23:25.756Z,1.00
2018-12-24T08:28:40.643Z,1.53
2018-12-24T08:33:55.247Z,1.00
2018-12-24T08:39:09.865Z,1.20
2018-12-24T08:44:24.679Z,1.27
2018-12-24T08:49:39.538Z,1.00
2018-12-24T08:54:54.111Z,1.07
2018-12-24T09:00:08.999Z,1.50
2018-12-24T09:05:23.571Z,1.97
2018-12-24T09:10:38.437Z,1.50
2018-12-24T09:15:52.862Z,1.20
2018-12-24T09:21:07.815Z,1.53
2018-12-24T09:26:22.632Z,1.37
2018-12-24T09:31:37.534Z,2.20
2018-12-24T09:36:51.824Z,1.60
2018-12-24T09:42:06.647Z,2.20
2018-12-24T09:47:21.266Z,1.90
2018-12-24T09:52:35.704Z,1.20
2018-12-24T09:57:50.633Z,1.10
2018-12-24T10:03:19.299Z,1.50
2018-12-24T10:08:33.760Z,1.20
2018-12-24T10:13:48.378Z,1.20
2018-12-24T10:19:02.924Z,1.00
2018-12-24T10:24:17.528Z,2.60
2018-12-24T10:29:32.030Z,2.90
2018-12-24T10:34:46.844Z,1.20
2018-12-24T10:40:12.569Z,1.10
2018-12-24T10:45:27.296Z,1.50
2018-12-24T10:50:42.179Z,1.40
2018-12-24T10:55:56.890Z,1.40
2018-12-24T11:01:11.815Z,1.40
2018-12-24T11:06:26.599Z,1.60
2018-12-24T11:11:41.187Z,1.33
2018-12-24T11:16:56.401Z,1.33
2018-12-24T11:22:11.265Z,1.20
2018-12-24T11:27:26.122Z,1.60
2018-12-24T11:32:40.955Z,1.70
2018-12-24T11:37:55.388Z,1.80
2018-12-24T11:43:10.186Z,2.10
2018-12-24T11:48:25.059Z,1.60
2018-12-24T11:53:39.450Z,1.90
2018-12-24T11:58:54.116Z,2.00
2018-12-24T12:04:08.937Z,1.90
2018-12-24T12:09:24.358Z,2.67
2018-12-24T12:14:38.603Z,1.80
2018-12-24T12:19:53.045Z,1.60
2018-12-24T12:25:07.291Z,1.40
2018-12-24T12:30:22.113Z,1.50
2018-12-24T12:35:36.996Z,3.20
2018-12-24T12:40:51.947Z,2.10
2018-12-24T12:46:08.661Z,1.47
2018-12-24T12:51:23.513Z,2.60
2018-12-24T12:56:38.110Z,1.77
2018-12-24T13:01:52.697Z,1.30
2018-12-24T13:07:10.752Z,2.27
2018-12-24T13:12:25.380Z,1.50
2018-12-24T13:17:40.219Z,2.37
2018-12-24T13:22:55.058Z,1.50
2018-12-24T13:28:09.910Z,1.93
2018-12-24T13:33:24.634Z,4.57
2018-12-24T13:38:39.191Z,1.80
2018-12-24T13:43:54.207Z,2.10
2018-12-24T13:49:08.957Z,2.93
2018-12-24T13:54:23.850Z,5.30
2018-12-24T13:59:38.371Z,3.57
2018-12-24T14:04:54.140Z,4.17
2018-12-24T14:10:09.237Z,4.20
2018-12-24T14:15:24.321Z,1.87
2018-12-24T14:20:38.985Z,2.10
2018-12-24T14:25:53.574Z,1.33
2018-12-24T14:31:08.370Z,2.47
2018-12-24T14:36:22.740Z,3.40
2018-12-24T14:41:37.351Z,3.47
2018-12-24T14:46:52.038Z,3.57
2018-12-24T14:52:06.467Z,5.37
2018-12-24T14:57:21.040Z,4.50
2018-12-24T15:02:35.157Z,6.67
2018-12-24T15:07:49.521Z,5.17
2018-12-24T15:13:04.009Z,4.13
2018-12-24T15:18:18.788Z,7.27
2018-12-24T15:23:33.314Z,6.97
2018-12-24T15:28:47.511Z,5.53
2018-12-24T15:34:43.078Z,6.20
2018-12-24T15:40:01.532Z,4.77
2018-12-24T15:45:16.422Z,6.03
2018-12-24T15:50:31.331Z,6.93
2018-12-24T15:55:46.381Z,7.23
2018-12-24T16:01:01.160Z,5.07
2018-12-24T16:06:15.906Z,5.20
2018-12-24T16:11:30.277Z,5.00
2018-12-24T16:16:50.981Z,6.07
2018-12-24T16:22:05.533Z,6.07
2018-12-24T16:27:19.970Z,7.70
2018-12-24T16:32:34.291Z,4.60
2018-12-24T16:37:49.477Z,4.63
2018-12-24T16:43:03.941Z,3.87
2018-12-24T16:48:25.149Z,3.83
2018-12-24T16:53:42.867Z,4.10
2018-12-24T16:58:58.506Z,6.53
2018-12-24T17:04:14.654Z,6.73
2018-12-24T17:09:29.652Z,10.00
2018-12-24T17:14:44.226Z,6.97
2018-12-24T17:19:58.896Z,8.67
2018-12-24T17:25:13.579Z,8.27
2018-12-24T17:30:28.252Z,9.50
2018-12-24T17:35:43.001Z,9.07
2018-12-24T17:40:58.422Z,5.90
2018-12-24T17:46:13.120Z,11.67
2018-12-24T17:51:28.074Z,5.20
2018-12-24T17:56:42.605Z,7.47
2018-12-24T18:01:57.586Z,7.77
2018-12-24T18:07:12.004Z,8.17
2018-12-24T18:12:26.716Z,8.73
2018-12-24T18:17:43.873Z,13.97
2018-12-24T18:22:59.380Z,9.73
2018-12-24T18:28:13.894Z,12.77
2018-12-24T18:33:28.963Z,9.30
2018-12-24T18:38:43.975Z,12.13
2018-12-24T18:43:58.548Z,14.60
2018-12-24T18:49:13.396Z,11.63
2018-12-24T18:54:30.220Z,11.80
2018-12-24T19:05:06.684Z,8.97
2018-12-24T19:10:23.800Z,6.00
2018-12-24T19:15:39.126Z,10.93
2018-12-24T19:20:53.578Z,9.00
2018-12-24T19:26:07.665Z,11.30
2018-12-24T19:31:22.423Z,10.87
2018-12-24T19:36:36.830Z,13.97
2018-12-24T19:41:51.561Z,10.93
2018-12-24T19:47:06.348Z,12.13
2018-12-24T19:52:20.975Z,14.67
2018-12-24T19:57:35.252Z,12.63
2018-12-24T20:02:49.737Z,12.37
2018-12-24T20:08:04.676Z,12.20
2018-12-24T20:13:20.709Z,10.27
2018-12-24T20:18:35.253Z,10.60
2018-12-24T20:23:49.983Z,10.83
2018-12-24T20:29:04.674Z,11.03
2018-12-24T20:34:20.825Z,11.57
2018-12-24T20:39:36.119Z,12.97
2018-12-24T20:44:55.535Z,12.20
2018-12-24T20:50:10.804Z,11.27
2018-12-24T21:00:45.923Z,10.90
2018-12-24T21:06:00.654Z,9.50
2018-12-24T21:11:15.522Z,11.87
2018-12-24T21:16:30.447Z,11.40
2018-12-24T21:21:47.076Z,16.33
2018-12-24T21:27:01.946Z,17.43
2018-12-24T21:32:16.551Z,12.53
2018-12-24T21:37:31.254Z,18.50
2018-12-24T21:42:45.810Z,16.87
2018-12-24T21:48:00.710Z,18.90
2018-12-24T21:53:15.257Z,21.50
2018-12-24T21:58:29.665Z,22.83
2018-12-24T22:03:44.530Z,32.43
2018-12-24T22:08:59.223Z,25.80
2018-12-24T22:14:13.901Z,26.87
2018-12-24T22:19:30.901Z,20.97
2018-12-24T22:24:56.851Z,18.07
2018-12-24T22:30:12.370Z,17.73
2018-12-24T22:35:29.717Z,18.80
2018-12-24T22:40:44.867Z,16.20
2018-12-24T22:45:59.924Z,20.10
2018-12-24T22:51:14.848Z,17.37
2018-12-24T22:56:29.791Z,16.90
2018-12-24T23:01:44.234Z,19.97
2018-12-24T23:06:58.724Z,16.33
2018-12-24T23:12:13.685Z,13.87
2018-12-24T23:17:33.153Z,12.97
2018-12-24T23:22:47.539Z,13.93
2018-12-24T23:28:02.727Z,11.23
2018-12-24T23:33:17.227Z,13.37
2018-12-24T23:38:31.827Z,14.43
2018-12-24T23:43:46.562Z,11.60
2018-12-24T23:49:01.204Z,14.67
2018-12-24T23:54:15.986Z,12.80
2018-12-24T23:59:30.774Z,14.03
